sensor_id;sensor_type;location;lat;lon;timestamp;pressure;altitude;pressure_sealevel;temperature;humidity
60019;BME280;45870;42.528;26.740;2023-07-20T00:02:21;99136.81;;;28.57;42.79
60019;BME280;45870;42.528;26.740;2023-07-20T00:04:46;99143.06;;;28.54;42.43
60019;BME280;45870;42.528;26.740;2023-07-20T00:07:12;99141.25;;;28.61;42.26
60019;BME280;45870;42.528;26.740;2023-07-20T00:09:37;99146.97;;;28.68;42.00
60019;BME280;45870;42.528;26.740;2023-07-20T00:12:03;99151.13;;;28.05;43.21
60019;BME280;45870;42.528;26.740;2023-07-20T00:14:29;99152.22;;;27.18;45.78
60019;BME280;45870;42.528;26.740;2023-07-20T00:16:55;99159.66;;;28.31;43.00
60019;BME280;45870;42.528;26.740;2023-07-20T00:19:25;99133.66;;;28.58;42.31
60019;BME280;45870;42.528;26.740;2023-07-20T00:21:52;99153.47;;;28.57;42.41
60019;BME280;45870;42.528;26.740;2023-07-20T00:24:18;99157.19;;;28.45;42.83
60019;BME280;45870;42.528;26.740;2023-07-20T00:26:43;99155.28;;;28.30;43.21
60019;BME280;45870;42.528;26.740;2023-07-20T00:29:10;99146.59;;;28.70;42.39
60019;BME280;45870;42.528;26.740;2023-07-20T00:31:35;99146.31;;;28.56;42.56
60019;BME280;45870;42.528;26.740;2023-07-20T00:34:04;99142.50;;;28.83;42.16
60019;BME280;45870;42.528;26.740;2023-07-20T00:36:30;99136.63;;;29.11;41.73
60019;BME280;45870;42.528;26.740;2023-07-20T00:38:55;99131.25;;;29.21;41.58
60019;BME280;45870;42.528;26.740;2023-07-20T00:41:21;99116.88;;;28.93;42.33
60019;BME280;45870;42.528;26.740;2023-07-20T00:43:47;99083.19;;;28.34;43.25
60019;BME280;45870;42.528;26.740;2023-07-20T00:46:13;99108.41;;;28.86;42.14
60019;BME280;45870;42.528;26.740;2023-07-20T00:48:40;99134.25;;;28.10;43.47
60019;BME280;45870;42.528;26.740;2023-07-20T00:51:07;99180.56;;;24.33;53.36
60019;BME280;45870;42.528;26.740;2023-07-20T00:53:32;99293.41;;;24.17;54.97
60019;BME280;45870;42.528;26.740;2023-07-20T00:55:58;99317.69;;;24.53;54.49
60019;BME280;45870;42.528;26.740;2023-07-20T00:58:24;99315.16;;;25.10;52.50
60019;BME280;45870;42.528;26.740;2023-07-20T01:00:51;99314.53;;;25.25;51.50
60019;BME280;45870;42.528;26.740;2023-07-20T01:03:17;99273.44;;;27.65;44.84
60019;BME280;45870;42.528;26.740;2023-07-20T01:05:56;99260.72;;;28.81;41.65
60019;BME280;45870;42.528;26.740;2023-07-20T01:09:08;99274.00;;;29.29;40.85
60019;BME280;45870;42.528;26.740;2023-07-20T01:11:53;99289.28;;;29.00;40.81
60019;BME280;45870;42.528;26.740;2023-07-20T01:14:23;99267.84;;;29.01;41.07
60019;BME280;45870;42.528;26.740;2023-07-20T01:16:51;99202.66;;;28.75;40.73
60019;BME280;45870;42.528;26.740;2023-07-20T01:19:17;99272.38;;;28.90;41.36
60019;BME280;45870;42.528;26.740;2023-07-20T01:21:53;99267.00;;;28.77;41.52
60019;BME280;45870;42.528;26.740;2023-07-20T01:24:38;99221.13;;;28.68;41.33
60019;BME280;45870;42.528;26.740;2023-07-20T01:32:16;99211.34;;;27.54;43.38
60019;BME280;45870;42.528;26.740;2023-07-20T01:34:44;99230.69;;;28.01;43.24
60019;BME280;45870;42.528;26.740;2023-07-20T01:37:11;99227.56;;;28.02;43.24
60019;BME280;45870;42.528;26.740;2023-07-20T01:39:38;99172.13;;;27.24;44.23
60019;BME280;45870;42.528;26.740;2023-07-20T01:42:04;99212.03;;;27.35;44.38
60019;BME280;45870;42.528;26.740;2023-07-20T01:44:30;99210.41;;;27.97;43.48
60019;BME280;45870;42.528;26.740;2023-07-20T01:46:55;99205.53;;;28.25;42.63
60019;BME280;45870;42.528;26.740;2023-07-20T01:49:21;99162.75;;;27.75;43.14
60019;BME280;45870;42.528;26.740;2023-07-20T01:51:47;99184.41;;;28.40;41.90
60019;BME280;45870;42.528;26.740;2023-07-20T01:54:12;99165.56;;;27.95;42.89
60019;BME280;45870;42.528;26.740;2023-07-20T01:56:38;99163.38;;;27.38;44.03
60019;BME280;45870;42.528;26.740;2023-07-20T01:59:04;99169.16;;;27.95;43.27
60019;BME280;45870;42.528;26.740;2023-07-20T02:01:29;99166.13;;;27.85;43.19
60019;BME280;45870;42.528;26.740;2023-07-20T02:03:55;99131.38;;;27.40;43.37
60019;BME280;45870;42.528;26.740;2023-07-20T02:06:21;99150.06;;;27.74;43.29
60019;BME280;45870;42.528;26.740;2023-07-20T02:08:46;99142.13;;;27.92;42.93
60019;BME280;45870;42.528;26.740;2023-07-20T02:11:12;99129.00;;;27.54;43.61
60019;BME280;45870;42.528;26.740;2023-07-20T02:13:38;99130.06;;;27.65;42.82
60019;BME280;45870;42.528;26.740;2023-07-20T02:16:04;99118.97;;;27.65;42.97
60019;BME280;45870;42.528;26.740;2023-07-20T02:18:30;99109.19;;;28.25;41.57
60019;BME280;45870;42.528;26.740;2023-07-20T02:20:55;99102.97;;;28.51;41.07
60019;BME280;45870;42.528;26.740;2023-07-20T02:23:21;99071.91;;;27.69;42.88
60019;BME280;45870;42.528;26.740;2023-07-20T02:25:46;99053.91;;;27.12;45.15
60019;BME280;45870;42.528;26.740;2023-07-20T02:28:14;99001.72;;;26.67;46.13
60019;BME280;45870;42.528;26.740;2023-07-20T02:30:40;99010.56;;;26.57;46.30
60019;BME280;45870;42.528;26.740;2023-07-20T02:33:05;98992.34;;;26.41;47.28
60019;BME280;45870;42.528;26.740;2023-07-20T02:35:32;99000.22;;;27.01;45.68
60019;BME280;45870;42.528;26.740;2023-07-20T02:37:57;99009.88;;;27.42;44.32
60019;BME280;45870;42.528;26.740;2023-07-20T02:40:23;98962.09;;;27.29;43.76
60019;BME280;45870;42.528;26.740;2023-07-20T02:42:49;98968.22;;;27.04;45.44
60019;BME280;45870;42.528;26.740;2023-07-20T02:45:15;98977.94;;;27.13;45.37
60019;BME280;45870;42.528;26.740;2023-07-20T02:47:41;98986.88;;;27.57;44.06
60019;BME280;45870;42.528;26.740;2023-07-20T02:50:08;98997.53;;;28.13;42.61
60019;BME280;45870;42.528;26.740;2023-07-20T02:52:34;98999.63;;;28.61;41.45
60019;BME280;45870;42.528;26.740;2023-07-20T02:54:59;99027.97;;;28.93;41.24
60019;BME280;45870;42.528;26.740;2023-07-20T02:57:26;99038.97;;;28.86;41.28
60019;BME280;45870;42.528;26.740;2023-07-20T02:59:52;99016.66;;;29.05;41.11
60019;BME280;45870;42.528;26.740;2023-07-20T03:02:18;99003.00;;;29.75;39.08
60019;BME280;45870;42.528;26.740;2023-07-20T03:04:43;98991.84;;;30.05;38.55
60019;BME280;45870;42.528;26.740;2023-07-20T03:07:12;98959.69;;;29.18;39.43
60019;BME280;45870;42.528;26.740;2023-07-20T03:09:38;98985.88;;;29.17;39.99
60019;BME280;45870;42.528;26.740;2023-07-20T03:12:05;98986.19;;;29.65;38.74
60019;BME280;45870;42.528;26.740;2023-07-20T03:14:31;98986.16;;;29.95;37.98
60019;BME280;45870;42.528;26.740;2023-07-20T03:16:56;98950.34;;;29.90;38.03
60019;BME280;45870;42.528;26.740;2023-07-20T03:19:22;98960.69;;;29.30;39.05
60019;BME280;45870;42.528;26.740;2023-07-20T03:21:47;98990.19;;;29.38;39.08
60019;BME280;45870;42.528;26.740;2023-07-20T03:24:13;98987.75;;;28.84;40.34
60019;BME280;45870;42.528;26.740;2023-07-20T03:26:39;98983.09;;;28.91;40.31
60019;BME280;45870;42.528;26.740;2023-07-20T03:29:05;98984.47;;;29.27;39.69
60019;BME280;45870;42.528;26.740;2023-07-20T03:31:32;98987.97;;;29.80;38.66
60019;BME280;45870;42.528;26.740;2023-07-20T03:33:57;98991.81;;;29.42;39.17
60019;BME280;45870;42.528;26.740;2023-07-20T03:36:23;99012.59;;;30.85;36.88
60019;BME280;45870;42.528;26.740;2023-07-20T03:38:49;99017.84;;;30.16;37.62
60019;BME280;45870;42.528;26.740;2023-07-20T03:41:15;99028.69;;;31.02;35.84
60019;BME280;45870;42.528;26.740;2023-07-20T03:43:41;99012.09;;;29.16;39.76
60019;BME280;45870;42.528;26.740;2023-07-20T03:46:07;99031.44;;;30.21;38.08
60019;BME280;45870;42.528;26.740;2023-07-20T03:48:33;99046.63;;;29.68;38.83
60019;BME280;45870;42.528;26.740;2023-07-20T03:50:59;99041.75;;;29.61;39.42
60019;BME280;45870;42.528;26.740;2023-07-20T03:53:25;99046.81;;;31.88;34.97
60019;BME280;45870;42.528;26.740;2023-07-20T03:55:52;99047.00;;;33.96;31.26
60019;BME280;45870;42.528;26.740;2023-07-20T03:58:19;99045.59;;;34.43;30.67
60019;BME280;45870;42.528;26.740;2023-07-20T04:00:45;99056.69;;;34.72;30.47
60019;BME280;45870;42.528;26.740;2023-07-20T04:03:12;99050.31;;;34.57;30.39
60019;BME280;45870;42.528;26.740;2023-07-20T04:05:37;99046.72;;;34.56;31.38
60019;BME280;45870;42.528;26.740;2023-07-20T04:08:03;99037.91;;;34.65;30.68
60019;BME280;45870;42.528;26.740;2023-07-20T04:10:29;99043.22;;;34.42;30.84
60019;BME280;45870;42.528;26.740;2023-07-20T04:12:55;99051.13;;;38.21;25.93
60019;BME280;45870;42.528;26.740;2023-07-20T04:15:20;99051.22;;;38.89;23.98
60019;BME280;45870;42.528;26.740;2023-07-20T04:17:46;99050.59;;;38.46;25.36
60019;BME280;45870;42.528;26.740;2023-07-20T04:20:11;99051.59;;;38.91;23.77
60019;BME280;45870;42.528;26.740;2023-07-20T04:22:38;99060.88;;;38.56;24.31
60019;BME280;45870;42.528;26.740;2023-07-20T04:25:04;99054.66;;;35.27;29.83
60019;BME280;45870;42.528;26.740;2023-07-20T04:27:31;99048.56;;;34.08;31.55
60019;BME280;45870;42.528;26.740;2023-07-20T04:30:00;99059.09;;;33.01;33.52
60019;BME280;45870;42.528;26.740;2023-07-20T04:32:26;99071.50;;;33.22;33.70
60019;BME280;45870;42.528;26.740;2023-07-20T04:34:51;99061.97;;;35.18;29.27
60019;BME280;45870;42.528;26.740;2023-07-20T04:37:17;99068.84;;;36.25;28.34
60019;BME280;45870;42.528;26.740;2023-07-20T04:39:43;99070.97;;;35.43;29.64
60019;BME280;45870;42.528;26.740;2023-07-20T04:42:08;99075.22;;;35.14;30.32
60019;BME280;45870;42.528;26.740;2023-07-20T04:44:34;99094.53;;;36.27;27.90
60019;BME280;45870;42.528;26.740;2023-07-20T04:46:59;99091.94;;;35.72;28.03
60019;BME280;45870;42.528;26.740;2023-07-20T04:49:25;99073.97;;;36.64;27.69
60019;BME280;45870;42.528;26.740;2023-07-20T04:51:51;99090.16;;;35.89;28.36
60019;BME280;45870;42.528;26.740;2023-07-20T04:54:17;99075.16;;;32.00;33.77
60019;BME280;45870;42.528;26.740;2023-07-20T04:56:43;99079.69;;;36.57;27.70
60019;BME280;45870;42.528;26.740;2023-07-20T04:59:09;99083.53;;;35.24;29.08
60019;BME280;45870;42.528;26.740;2023-07-20T05:01:35;99098.25;;;36.21;28.20
60019;BME280;45870;42.528;26.740;2023-07-20T05:04:01;99079.44;;;35.36;29.33
60019;BME280;45870;42.528;26.740;2023-07-20T05:06:27;99099.13;;;35.32;28.84
60019;BME280;45870;42.528;26.740;2023-07-20T05:08:54;99094.19;;;37.59;24.96
60019;BME280;45870;42.528;26.740;2023-07-20T05:11:19;99091.78;;;35.86;28.59
60019;BME280;45870;42.528;26.740;2023-07-20T05:13:45;99097.44;;;38.95;24.43
60019;BME280;45870;42.528;26.740;2023-07-20T05:16:11;99106.88;;;36.67;26.99
60019;BME280;45870;42.528;26.740;2023-07-20T05:18:37;99103.94;;;37.05;26.62
60019;BME280;45870;42.528;26.740;2023-07-20T05:21:02;99107.94;;;40.62;22.00
60019;BME280;45870;42.528;26.740;2023-07-20T05:23:28;99093.47;;;41.83;20.01
60019;BME280;45870;42.528;26.740;2023-07-20T05:25:58;99089.84;;;40.31;22.59
60019;BME280;45870;42.528;26.740;2023-07-20T05:28:25;99101.84;;;41.40;21.11
60019;BME280;45870;42.528;26.740;2023-07-20T05:30:51;99075.84;;;39.54;22.52
60019;BME280;45870;42.528;26.740;2023-07-20T05:33:18;99088.94;;;40.34;21.68
60019;BME280;45870;42.528;26.740;2023-07-20T05:35:44;99068.00;;;43.46;18.53
60019;BME280;45870;42.528;26.740;2023-07-20T05:38:10;99101.50;;;45.35;16.70
60019;BME280;45870;42.528;26.740;2023-07-20T05:40:40;99085.09;;;41.67;20.59
60019;BME280;45870;42.528;26.740;2023-07-20T05:43:06;99088.19;;;38.20;23.74
60019;BME280;45870;42.528;26.740;2023-07-20T05:45:32;99103.47;;;39.46;23.62
60019;BME280;45870;42.528;26.740;2023-07-20T05:47:57;99098.38;;;41.57;20.48
60019;BME280;45870;42.528;26.740;2023-07-20T05:50:23;99087.91;;;41.20;21.36
60019;BME280;45870;42.528;26.740;2023-07-20T05:52:48;99093.59;;;41.79;19.95
60019;BME280;45870;42.528;26.740;2023-07-20T05:55:14;99090.06;;;40.90;21.25
60019;BME280;45870;42.528;26.740;2023-07-20T05:57:40;99095.31;;;39.00;23.75
60019;BME280;45870;42.528;26.740;2023-07-20T06:00:08;99067.47;;;42.80;19.47
60019;BME280;45870;42.528;26.740;2023-07-20T06:02:36;99103.69;;;42.67;19.45
60019;BME280;45870;42.528;26.740;2023-07-20T06:05:02;99097.19;;;43.38;18.39
60019;BME280;45870;42.528;26.740;2023-07-20T06:07:28;99093.94;;;45.94;16.10
60019;BME280;45870;42.528;26.740;2023-07-20T06:09:54;99094.94;;;44.69;17.19
60019;BME280;45870;42.528;26.740;2023-07-20T06:12:19;99084.16;;;44.82;16.77
60019;BME280;45870;42.528;26.740;2023-07-20T06:14:45;99074.50;;;43.65;18.23
60019;BME280;45870;42.528;26.740;2023-07-20T06:17:11;99078.28;;;43.62;18.30
60019;BME280;45870;42.528;26.740;2023-07-20T06:19:37;99078.06;;;42.58;19.34
60019;BME280;45870;42.528;26.740;2023-07-20T06:22:03;99068.13;;;43.34;17.71
60019;BME280;45870;42.528;26.740;2023-07-20T06:24:29;99068.91;;;44.61;16.18
60019;BME280;45870;42.528;26.740;2023-07-20T06:26:55;99058.91;;;43.11;17.13
60019;BME280;45870;42.528;26.740;2023-07-20T06:29:23;99044.88;;;42.68;17.71
60019;BME280;45870;42.528;26.740;2023-07-20T06:31:49;99069.25;;;41.57;18.65
60019;BME280;45870;42.528;26.740;2023-07-20T06:34:15;99062.75;;;43.26;17.17
60019;BME280;45870;42.528;26.740;2023-07-20T06:36:40;99060.75;;;42.34;18.28
60019;BME280;45870;42.528;26.740;2023-07-20T06:39:06;99057.03;;;45.52;16.44
60019;BME280;45870;42.528;26.740;2023-07-20T06:41:32;99055.31;;;44.89;15.37
60019;BME280;45870;42.528;26.740;2023-07-20T06:43:57;99047.63;;;42.90;18.73
60019;BME280;45870;42.528;26.740;2023-07-20T06:46:27;99045.59;;;44.21;16.86
60019;BME280;45870;42.528;26.740;2023-07-20T06:48:53;99010.25;;;43.00;18.88
60019;BME280;45870;42.528;26.740;2023-07-20T06:51:19;99008.09;;;44.13;16.23
60019;BME280;45870;42.528;26.740;2023-07-20T06:53:45;99046.72;;;44.65;16.97
60019;BME280;45870;42.528;26.740;2023-07-20T06:56:11;99047.53;;;42.62;18.11
60019;BME280;45870;42.528;26.740;2023-07-20T06:58:37;99050.00;;;44.73;15.91
60019;BME280;45870;42.528;26.740;2023-07-20T07:01:07;99008.41;;;41.83;19.02
60019;BME280;45870;42.528;26.740;2023-07-20T07:03:33;99037.97;;;44.27;16.41
60019;BME280;45870;42.528;26.740;2023-07-20T07:05:59;99014.59;;;44.14;16.00
60019;BME280;45870;42.528;26.740;2023-07-20T07:08:25;99037.31;;;42.74;18.18
60019;BME280;45870;42.528;26.740;2023-07-20T07:10:52;99037.94;;;40.25;19.83
60019;BME280;45870;42.528;26.740;2023-07-20T07:13:19;99048.75;;;43.50;17.27
60019;BME280;45870;42.528;26.740;2023-07-20T07:15:44;99048.72;;;44.14;17.80
60019;BME280;45870;42.528;26.740;2023-07-20T07:18:11;99052.38;;;46.17;14.31
60019;BME280;45870;42.528;26.740;2023-07-20T07:20:37;99054.13;;;44.12;16.88
60019;BME280;45870;42.528;26.740;2023-07-20T07:23:04;99045.78;;;43.90;17.51
60019;BME280;45870;42.528;26.740;2023-07-20T07:25:30;99054.13;;;44.12;16.51
60019;BME280;45870;42.528;26.740;2023-07-20T07:27:57;99055.25;;;42.62;18.08
60019;BME280;45870;42.528;26.740;2023-07-20T07:30:23;99043.63;;;43.18;17.08
60019;BME280;45870;42.528;26.740;2023-07-20T07:32:48;99038.31;;;44.71;16.73
60019;BME280;45870;42.528;26.740;2023-07-20T07:35:14;99040.69;;;44.21;16.67
60019;BME280;45870;42.528;26.740;2023-07-20T07:37:40;99016.94;;;43.06;17.24
60019;BME280;45870;42.528;26.740;2023-07-20T07:40:06;99040.22;;;44.23;17.60
60019;BME280;45870;42.528;26.740;2023-07-20T07:42:33;99040.25;;;44.65;15.46
60019;BME280;45870;42.528;26.740;2023-07-20T07:44:58;99032.75;;;43.25;17.55
60019;BME280;45870;42.528;26.740;2023-07-20T07:47:24;99039.09;;;46.14;14.73
60019;BME280;45870;42.528;26.740;2023-07-20T07:49:50;99036.50;;;42.64;17.38
60019;BME280;45870;42.528;26.740;2023-07-20T07:52:16;99031.31;;;44.39;16.27
60019;BME280;45870;42.528;26.740;2023-07-20T07:54:42;99035.44;;;44.29;16.35
60019;BME280;45870;42.528;26.740;2023-07-20T07:57:07;99036.91;;;43.52;16.92
60019;BME280;45870;42.528;26.740;2023-07-20T07:59:33;99042.81;;;44.54;16.02
60019;BME280;45870;42.528;26.740;2023-07-20T08:02:04;99041.81;;;48.23;12.75
60019;BME280;45870;42.528;26.740;2023-07-20T08:04:30;99022.34;;;46.22;13.97
60019;BME280;45870;42.528;26.740;2023-07-20T08:06:56;99022.09;;;42.28;17.43
60019;BME280;45870;42.528;26.740;2023-07-20T08:09:22;99039.00;;;42.62;17.78
60019;BME280;45870;42.528;26.740;2023-07-20T08:11:47;99035.19;;;43.45;16.99
60019;BME280;45870;42.528;26.740;2023-07-20T08:14:15;99012.56;;;45.22;16.79
60019;BME280;45870;42.528;26.740;2023-07-20T08:16:40;99013.59;;;46.10;13.89
60019;BME280;45870;42.528;26.740;2023-07-20T08:19:06;98992.16;;;44.91;16.13
60019;BME280;45870;42.528;26.740;2023-07-20T08:21:32;98994.72;;;44.65;15.86
60019;BME280;45870;42.528;26.740;2023-07-20T08:23:58;99029.59;;;44.33;17.21
60019;BME280;45870;42.528;26.740;2023-07-20T08:26:24;99030.97;;;45.45;15.65
60019;BME280;45870;42.528;26.740;2023-07-20T08:28:50;99026.06;;;44.89;15.54
60019;BME280;45870;42.528;26.740;2023-07-20T08:31:15;99022.69;;;42.85;17.97
60019;BME280;45870;42.528;26.740;2023-07-20T08:33:41;99021.19;;;43.02;17.13
60019;BME280;45870;42.528;26.740;2023-07-20T08:36:07;99019.16;;;44.30;15.74
60019;BME280;45870;42.528;26.740;2023-07-20T08:38:33;98958.03;;;42.98;16.44
60019;BME280;45870;42.528;26.740;2023-07-20T08:40:59;99017.72;;;45.09;15.62
60019;BME280;45870;42.528;26.740;2023-07-20T08:43:26;99014.28;;;45.29;15.18
60019;BME280;45870;42.528;26.740;2023-07-20T08:45:55;99008.22;;;45.12;14.29
60019;BME280;45870;42.528;26.740;2023-07-20T08:48:22;99004.03;;;43.96;15.89
60019;BME280;45870;42.528;26.740;2023-07-20T08:50:51;99011.44;;;46.20;13.94
60019;BME280;45870;42.528;26.740;2023-07-20T08:53:17;99007.19;;;44.67;14.90
60019;BME280;45870;42.528;26.740;2023-07-20T08:55:45;99006.75;;;42.47;17.63
60019;BME280;45870;42.528;26.740;2023-07-20T08:58:12;98975.19;;;44.72;15.21
60019;BME280;45870;42.528;26.740;2023-07-20T09:00:41;99010.19;;;43.31;16.98
60019;BME280;45870;42.528;26.740;2023-07-20T09:03:07;99001.66;;;43.31;16.99
60019;BME280;45870;42.528;26.740;2023-07-20T09:05:35;99006.06;;;43.32;17.07
60019;BME280;45870;42.528;26.740;2023-07-20T09:08:01;98969.50;;;43.52;17.26
60019;BME280;45870;42.528;26.740;2023-07-20T09:10:29;99020.56;;;43.07;16.94
60019;BME280;45870;42.528;26.740;2023-07-20T09:12:55;99016.44;;;41.84;17.74
60019;BME280;45870;42.528;26.740;2023-07-20T09:15:22;99010.66;;;44.20;15.46
60019;BME280;45870;42.528;26.740;2023-07-20T09:17:49;99023.34;;;42.05;18.24
60019;BME280;45870;42.528;26.740;2023-07-20T09:20:21;99017.31;;;42.87;17.09
60019;BME280;45870;42.528;26.740;2023-07-20T09:22:47;99011.06;;;45.12;15.56
60019;BME280;45870;42.528;26.740;2023-07-20T09:25:18;99002.34;;;43.62;17.17
60019;BME280;45870;42.528;26.740;2023-07-20T09:27:48;99012.69;;;44.71;16.51
60019;BME280;45870;42.528;26.740;2023-07-20T09:30:15;99018.72;;;44.55;16.24
60019;BME280;45870;42.528;26.740;2023-07-20T09:32:46;99011.81;;;46.42;15.52
60019;BME280;45870;42.528;26.740;2023-07-20T09:35:17;98995.34;;;44.09;16.69
60019;BME280;45870;42.528;26.740;2023-07-20T09:37:46;98992.44;;;44.27;16.40
60019;BME280;45870;42.528;26.740;2023-07-20T09:40:16;99005.19;;;45.92;14.76
60019;BME280;45870;42.528;26.740;2023-07-20T09:42:44;98963.91;;;45.11;15.11
60019;BME280;45870;42.528;26.740;2023-07-20T09:45:10;98997.28;;;44.45;15.24
60019;BME280;45870;42.528;26.740;2023-07-20T09:47:37;98996.63;;;44.59;16.03
60019;BME280;45870;42.528;26.740;2023-07-20T09:50:04;98978.56;;;45.95;14.84
60019;BME280;45870;42.528;26.740;2023-07-20T09:52:30;98964.97;;;45.90;15.14
60019;BME280;45870;42.528;26.740;2023-07-20T09:54:57;98961.63;;;46.21;14.91
60019;BME280;45870;42.528;26.740;2023-07-20T09:57:25;98982.75;;;45.70;14.63
60019;BME280;45870;42.528;26.740;2023-07-20T09:59:51;98976.31;;;41.30;17.93
60019;BME280;45870;42.528;26.740;2023-07-20T10:02:23;98963.22;;;44.68;15.79
60019;BME280;45870;42.528;26.740;2023-07-20T10:04:53;98971.19;;;43.68;17.16
60019;BME280;45870;42.528;26.740;2023-07-20T10:07:19;98963.41;;;44.23;15.53
60019;BME280;45870;42.528;26.740;2023-07-20T10:09:50;98952.16;;;42.74;16.65
60019;BME280;45870;42.528;26.740;2023-07-20T10:12:22;98955.53;;;43.00;16.10
60019;BME280;45870;42.528;26.740;2023-07-20T10:17:33;98964.72;;;45.64;14.24
60019;BME280;45870;42.528;26.740;2023-07-20T10:20:02;98953.44;;;46.43;12.44
60019;BME280;45870;42.528;26.740;2023-07-20T10:22:35;98955.25;;;43.34;16.40
60019;BME280;45870;42.528;26.740;2023-07-20T10:25:01;98946.09;;;46.22;13.68
60019;BME280;45870;42.528;26.740;2023-07-20T10:27:27;98944.66;;;43.07;16.85
60019;BME280;45870;42.528;26.740;2023-07-20T10:29:53;98944.38;;;43.23;16.49
60019;BME280;45870;42.528;26.740;2023-07-20T10:32:20;98939.78;;;43.53;16.19
60019;BME280;45870;42.528;26.740;2023-07-20T10:34:51;98928.91;;;44.30;15.32
60019;BME280;45870;42.528;26.740;2023-07-20T10:38:00;98925.31;;;46.71;13.62
60019;BME280;45870;42.528;26.740;2023-07-20T10:43:00;98898.72;;;47.20;13.31
60019;BME280;45870;42.528;26.740;2023-07-20T10:45:40;98868.00;;;45.76;13.78
60019;BME280;45870;42.528;26.740;2023-07-20T10:48:14;98875.38;;;47.79;13.20
60019;BME280;45870;42.528;26.740;2023-07-20T10:50:43;98879.13;;;47.13;13.45
60019;BME280;45870;42.528;26.740;2023-07-20T10:53:14;98873.31;;;46.47;13.24
60019;BME280;45870;42.528;26.740;2023-07-20T10:55:41;98879.50;;;43.31;16.31
60019;BME280;45870;42.528;26.740;2023-07-20T10:58:14;98875.25;;;44.05;15.88
60019;BME280;45870;42.528;26.740;2023-07-20T11:00:59;98883.28;;;43.01;16.91
60019;BME280;45870;42.528;26.740;2023-07-20T11:03:31;98890.56;;;43.47;16.05
60019;BME280;45870;42.528;26.740;2023-07-20T11:05:59;98891.81;;;43.46;15.82
60019;BME280;45870;42.528;26.740;2023-07-20T11:08:44;98887.19;;;42.76;16.94
60019;BME280;45870;42.528;26.740;2023-07-20T11:11:29;98884.88;;;43.11;17.35
60019;BME280;45870;42.528;26.740;2023-07-20T11:16:44;98876.81;;;44.95;14.36
60019;BME280;45870;42.528;26.740;2023-07-20T11:19:20;98864.16;;;42.83;16.26
60019;BME280;45870;42.528;26.740;2023-07-20T11:21:53;98826.81;;;43.21;15.87
60019;BME280;45870;42.528;26.740;2023-07-20T11:24:19;98857.91;;;43.24;16.37
60019;BME280;45870;42.528;26.740;2023-07-20T11:29:16;98828.53;;;42.91;17.02
60019;BME280;45870;42.528;26.740;2023-07-20T11:31:44;98852.06;;;43.10;16.16
60019;BME280;45870;42.528;26.740;2023-07-20T11:34:15;98846.13;;;44.76;15.31
60019;BME280;45870;42.528;26.740;2023-07-20T11:36:43;98843.84;;;44.32;15.29
60019;BME280;45870;42.528;26.740;2023-07-20T11:39:10;98854.34;;;43.84;16.87
60019;BME280;45870;42.528;26.740;2023-07-20T11:41:36;98847.78;;;43.42;16.37
60019;BME280;45870;42.528;26.740;2023-07-20T11:44:02;98836.09;;;44.33;16.41
60019;BME280;45870;42.528;26.740;2023-07-20T11:46:31;98826.66;;;43.85;17.23
60019;BME280;45870;42.528;26.740;2023-07-20T11:48:58;98835.16;;;43.24;16.70
60019;BME280;45870;42.528;26.740;2023-07-20T11:51:28;98837.22;;;42.88;16.21
60019;BME280;45870;42.528;26.740;2023-07-20T11:53:54;98830.63;;;42.23;17.38
60019;BME280;45870;42.528;26.740;2023-07-20T11:56:20;98831.38;;;44.77;15.67
60019;BME280;45870;42.528;26.740;2023-07-20T11:58:48;98832.53;;;43.72;15.42
60019;BME280;45870;42.528;26.740;2023-07-20T12:01:14;98827.50;;;44.89;15.55
60019;BME280;45870;42.528;26.740;2023-07-20T12:03:43;98809.69;;;43.99;15.79
60019;BME280;45870;42.528;26.740;2023-07-20T12:06:10;98813.69;;;45.26;15.15
60019;BME280;45870;42.528;26.740;2023-07-20T12:08:41;98799.63;;;43.29;15.91
60019;BME280;45870;42.528;26.740;2023-07-20T12:11:07;98800.59;;;43.26;17.45
60019;BME280;45870;42.528;26.740;2023-07-20T12:13:38;98761.53;;;43.63;15.88
60019;BME280;45870;42.528;26.740;2023-07-20T12:16:15;98791.94;;;42.84;15.80
60019;BME280;45870;42.528;26.740;2023-07-20T12:18:43;98787.47;;;43.28;16.98
60019;BME280;45870;42.528;26.740;2023-07-20T12:21:09;98784.94;;;43.49;15.93
60019;BME280;45870;42.528;26.740;2023-07-20T12:23:39;98778.34;;;44.80;15.19
60019;BME280;45870;42.528;26.740;2023-07-20T12:26:09;98773.63;;;43.72;16.49
60019;BME280;45870;42.528;26.740;2023-07-20T12:28:38;98783.63;;;44.01;15.89
60019;BME280;45870;42.528;26.740;2023-07-20T12:31:05;98782.03;;;43.07;16.54
60019;BME280;45870;42.528;26.740;2023-07-20T12:33:31;98779.00;;;42.92;16.54
60019;BME280;45870;42.528;26.740;2023-07-20T12:35:57;98779.13;;;44.80;15.59
60019;BME280;45870;42.528;26.740;2023-07-20T12:38:25;98785.91;;;43.18;16.72
60019;BME280;45870;42.528;26.740;2023-07-20T12:40:52;98780.44;;;42.69;16.86
60019;BME280;45870;42.528;26.740;2023-07-20T12:43:20;98776.91;;;42.38;17.55
60019;BME280;45870;42.528;26.740;2023-07-20T12:45:45;98768.25;;;42.51;16.60
60019;BME280;45870;42.528;26.740;2023-07-20T12:48:11;98765.38;;;45.17;15.34
60019;BME280;45870;42.528;26.740;2023-07-20T12:50:37;98758.66;;;46.13;15.31
60019;BME280;45870;42.528;26.740;2023-07-20T12:53:02;98776.09;;;44.45;15.27
60019;BME280;45870;42.528;26.740;2023-07-20T12:55:29;98744.72;;;45.22;14.50
60019;BME280;45870;42.528;26.740;2023-07-20T12:57:55;98756.75;;;44.49;15.09
60019;BME280;45870;42.528;26.740;2023-07-20T13:00:21;98758.16;;;42.59;16.71
60019;BME280;45870;42.528;26.740;2023-07-20T13:02:50;98756.91;;;42.32;17.20
60019;BME280;45870;42.528;26.740;2023-07-20T13:05:17;98745.16;;;43.82;16.03
60019;BME280;45870;42.528;26.740;2023-07-20T13:07:42;98762.16;;;46.63;14.00